sensor_id;sensor_type;location;lat;lon;timestamp;P1;durP1;ratioP1;P2;durP2;ratioP2
944;SDS011;459;48.676;9.034;2022-08-18T00:01:37;7.90;;;7.20;;
944;SDS011;459;48.676;9.034;2022-08-18T00:04:04;8.23;;;7.43;;
944;SDS011;459;48.676;9.034;2022-08-18T00:06:29;7.60;;;6.90;;
944;SDS011;459;48.676;9.034;2022-08-18T00:08:55;7.73;;;7.23;;
944;SDS011;459;48.676;9.034;2022-08-18T00:11:21;7.90;;;7.30;;
944;SDS011;459;48.676;9.034;2022-08-18T00:13:47;8.73;;;8.03;;
944;SDS011;459;48.676;9.034;2022-08-18T00:16:12;8.13;;;7.50;;
944;SDS011;459;48.676;9.034;2022-08-18T00:18:37;7.70;;;6.90;;
944;SDS011;459;48.676;9.034;2022-08-18T00:21:03;8.03;;;7.33;;
944;SDS011;459;48.676;9.034;2022-08-18T00:23:29;8.20;;;7.50;;
944;SDS011;459;48.676;9.034;2022-08-18T00:25:56;8.23;;;7.53;;
944;SDS011;459;48.676;9.034;2022-08-18T00:28:23;7.20;;;6.60;;
944;SDS011;459;48.676;9.034;2022-08-18T00:30:48;8.47;;;7.80;;
944;SDS011;459;48.676;9.034;2022-08-18T00:33:13;8.10;;;7.50;;
944;SDS011;459;48.676;9.034;2022-08-18T00:35:38;6.77;;;6.17;;
944;SDS011;459;48.676;9.034;2022-08-18T00:38:04;7.00;;;6.50;;
944;SDS011;459;48.676;9.034;2022-08-18T00:40:40;8.73;;;8.03;;
944;SDS011;459;48.676;9.034;2022-08-18T00:43:06;8.87;;;8.17;;
944;SDS011;459;48.676;9.034;2022-08-18T00:45:35;8.57;;;7.83;;
944;SDS011;459;48.676;9.034;2022-08-18T00:48:04;7.87;;;7.27;;
944;SDS011;459;48.676;9.034;2022-08-18T00:50:37;7.43;;;6.93;;
944;SDS011;459;48.676;9.034;2022-08-18T00:55:37;6.97;;;6.40;;
944;SDS011;459;48.676;9.034;2022-08-18T00:58:06;7.37;;;6.77;;
944;SDS011;459;48.676;9.034;2022-08-18T01:00:33;7.90;;;7.40;;
944;SDS011;459;48.676;9.034;2022-08-18T01:02:59;8.47;;;7.77;;
944;SDS011;459;48.676;9.034;2022-08-18T01:05:30;8.77;;;7.97;;
944;SDS011;459;48.676;9.034;2022-08-18T01:07:57;8.03;;;7.33;;
944;SDS011;459;48.676;9.034;2022-08-18T01:10:23;7.23;;;6.63;;
944;SDS011;459;48.676;9.034;2022-08-18T01:12:53;6.43;;;5.97;;
944;SDS011;459;48.676;9.034;2022-08-18T01:15:20;8.60;;;7.87;;
944;SDS011;459;48.676;9.034;2022-08-18T01:17:45;7.70;;;7.00;;
944;SDS011;459;48.676;9.034;2022-08-18T01:23:25;7.87;;;7.10;;
944;SDS011;459;48.676;9.034;2022-08-18T01:25:51;8.30;;;7.70;;
944;SDS011;459;48.676;9.034;2022-08-18T01:28:33;8.30;;;7.70;;
944;SDS011;459;48.676;9.034;2022-08-18T01:30:59;7.93;;;7.33;;
944;SDS011;459;48.676;9.034;2022-08-18T01:33:26;8.00;;;7.50;;
944;SDS011;459;48.676;9.034;2022-08-18T01:35:51;8.37;;;7.67;;
944;SDS011;459;48.676;9.034;2022-08-18T01:38:17;7.43;;;6.87;;
944;SDS011;459;48.676;9.034;2022-08-18T01:40:44;7.83;;;7.13;;
944;SDS011;459;48.676;9.034;2022-08-18T01:43:10;7.53;;;6.93;;
944;SDS011;459;48.676;9.034;2022-08-18T01:45:35;7.67;;;7.07;;
944;SDS011;459;48.676;9.034;2022-08-18T01:48:00;7.67;;;7.07;;
944;SDS011;459;48.676;9.034;2022-08-18T01:50:28;9.20;;;8.13;;
944;SDS011;459;48.676;9.034;2022-08-18T01:52:54;8.13;;;7.40;;
944;SDS011;459;48.676;9.034;2022-08-18T01:55:19;7.13;;;6.60;;
944;SDS011;459;48.676;9.034;2022-08-18T01:57:44;8.40;;;7.60;;
944;SDS011;459;48.676;9.034;2022-08-18T02:00:11;7.10;;;6.50;;
944;SDS011;459;48.676;9.034;2022-08-18T02:02:36;7.80;;;7.20;;
944;SDS011;459;48.676;9.034;2022-08-18T02:05:04;8.17;;;7.47;;
944;SDS011;459;48.676;9.034;2022-08-18T02:07:29;8.50;;;7.80;;
944;SDS011;459;48.676;9.034;2022-08-18T02:09:55;7.40;;;6.80;;
944;SDS011;459;48.676;9.034;2022-08-18T02:12:20;7.20;;;6.53;;
944;SDS011;459;48.676;9.034;2022-08-18T02:14:45;8.17;;;7.33;;
944;SDS011;459;48.676;9.034;2022-08-18T02:17:11;7.90;;;7.20;;
944;SDS011;459;48.676;9.034;2022-08-18T02:19:40;8.00;;;7.30;;
944;SDS011;459;48.676;9.034;2022-08-18T02:22:06;7.70;;;7.00;;
944;SDS011;459;48.676;9.034;2022-08-18T02:24:32;8.37;;;7.57;;
944;SDS011;459;48.676;9.034;2022-08-18T02:26:57;8.00;;;7.30;;
944;SDS011;459;48.676;9.034;2022-08-18T02:29:22;9.60;;;8.80;;
944;SDS011;459;48.676;9.034;2022-08-18T02:31:48;7.77;;;7.17;;
944;SDS011;459;48.676;9.034;2022-08-18T02:34:14;7.47;;;6.87;;
944;SDS011;459;48.676;9.034;2022-08-18T02:36:39;8.73;;;8.03;;
944;SDS011;459;48.676;9.034;2022-08-18T02:39:04;8.20;;;7.60;;
944;SDS011;459;48.676;9.034;2022-08-18T02:41:29;8.40;;;7.80;;
944;SDS011;459;48.676;9.034;2022-08-18T02:43:55;7.80;;;7.13;;
944;SDS011;459;48.676;9.034;2022-08-18T02:46:20;8.23;;;7.53;;
944;SDS011;459;48.676;9.034;2022-08-18T02:48:46;8.10;;;7.37;;
944;SDS011;459;48.676;9.034;2022-08-18T02:51:14;7.57;;;7.07;;
944;SDS011;459;48.676;9.034;2022-08-18T02:53:40;8.13;;;7.33;;
944;SDS011;459;48.676;9.034;2022-08-18T02:56:10;8.60;;;8.00;;
944;SDS011;459;48.676;9.034;2022-08-18T02:58:44;8.70;;;8.00;;
944;SDS011;459;48.676;9.034;2022-08-18T03:01:09;8.67;;;7.87;;
944;SDS011;459;48.676;9.034;2022-08-18T03:03:35;8.87;;;8.07;;
944;SDS011;459;48.676;9.034;2022-08-18T03:06:00;9.70;;;9.00;;
944;SDS011;459;48.676;9.034;2022-08-18T03:08:25;8.57;;;7.90;;
944;SDS011;459;48.676;9.034;2022-08-18T03:10:51;8.90;;;8.10;;
944;SDS011;459;48.676;9.034;2022-08-18T03:13:16;10.03;;;9.07;;
944;SDS011;459;48.676;9.034;2022-08-18T03:15:41;11.03;;;10.13;;
944;SDS011;459;48.676;9.034;2022-08-18T03:18:08;10.03;;;9.13;;
944;SDS011;459;48.676;9.034;2022-08-18T03:20:34;9.97;;;9.17;;
944;SDS011;459;48.676;9.034;2022-08-18T03:22:59;9.33;;;8.53;;
944;SDS011;459;48.676;9.034;2022-08-18T03:25:26;10.50;;;9.60;;
944;SDS011;459;48.676;9.034;2022-08-18T03:27:51;10.50;;;9.70;;
944;SDS011;459;48.676;9.034;2022-08-18T03:30:16;10.10;;;9.10;;
944;SDS011;459;48.676;9.034;2022-08-18T03:32:41;9.63;;;8.83;;
944;SDS011;459;48.676;9.034;2022-08-18T03:35:07;9.83;;;9.13;;
944;SDS011;459;48.676;9.034;2022-08-18T03:37:32;9.57;;;8.87;;
944;SDS011;459;48.676;9.034;2022-08-18T03:39:57;9.70;;;8.90;;
944;SDS011;459;48.676;9.034;2022-08-18T03:42:22;9.73;;;8.83;;
944;SDS011;459;48.676;9.034;2022-08-18T03:44:48;9.70;;;8.80;;
944;SDS011;459;48.676;9.034;2022-08-18T03:47:13;10.77;;;9.77;;
944;SDS011;459;48.676;9.034;2022-08-18T03:49:39;9.27;;;8.57;;
944;SDS011;459;48.676;9.034;2022-08-18T03:52:08;10.47;;;9.57;;
944;SDS011;459;48.676;9.034;2022-08-18T03:54:34;10.50;;;9.50;;
944;SDS011;459;48.676;9.034;2022-08-18T03:57:00;11.03;;;10.07;;
944;SDS011;459;48.676;9.034;2022-08-18T03:59:25;11.20;;;10.27;;
944;SDS011;459;48.676;9.034;2022-08-18T04:01:51;9.90;;;9.20;;
944;SDS011;459;48.676;9.034;2022-08-18T04:04:18;11.37;;;10.27;;
944;SDS011;459;48.676;9.034;2022-08-18T04:06:48;10.33;;;9.33;;
944;SDS011;459;48.676;9.034;2022-08-18T04:09:14;10.47;;;9.60;;
944;SDS011;459;48.676;9.034;2022-08-18T04:11:41;11.50;;;10.43;;
944;SDS011;459;48.676;9.034;2022-08-18T04:14:14;10.17;;;9.30;;
944;SDS011;459;48.676;9.034;2022-08-18T04:16:40;10.40;;;9.50;;
944;SDS011;459;48.676;9.034;2022-08-18T04:19:05;9.03;;;8.33;;
944;SDS011;459;48.676;9.034;2022-08-18T04:21:31;8.80;;;8.10;;
944;SDS011;459;48.676;9.034;2022-08-18T04:23:57;10.23;;;9.23;;
944;SDS011;459;48.676;9.034;2022-08-18T04:26:27;10.13;;;8.90;;
944;SDS011;459;48.676;9.034;2022-08-18T04:28:52;8.50;;;7.87;;
944;SDS011;459;48.676;9.034;2022-08-18T04:31:17;8.97;;;8.27;;
944;SDS011;459;48.676;9.034;2022-08-18T04:33:47;10.20;;;9.40;;
944;SDS011;459;48.676;9.034;2022-08-18T04:36:13;8.73;;;8.03;;
944;SDS011;459;48.676;9.034;2022-08-18T04:38:38;9.90;;;9.00;;
944;SDS011;459;48.676;9.034;2022-08-18T04:41:05;9.30;;;8.50;;
944;SDS011;459;48.676;9.034;2022-08-18T04:43:31;9.30;;;8.47;;
944;SDS011;459;48.676;9.034;2022-08-18T04:45:56;9.90;;;9.00;;
944;SDS011;459;48.676;9.034;2022-08-18T04:48:27;9.87;;;9.07;;
944;SDS011;459;48.676;9.034;2022-08-18T04:50:52;9.77;;;8.97;;
944;SDS011;459;48.676;9.034;2022-08-18T04:53:17;8.97;;;8.33;;
944;SDS011;459;48.676;9.034;2022-08-18T04:56:01;8.70;;;8.00;;
944;SDS011;459;48.676;9.034;2022-08-18T04:58:28;9.67;;;8.87;;
944;SDS011;459;48.676;9.034;2022-08-18T05:00:57;9.23;;;8.53;;
944;SDS011;459;48.676;9.034;2022-08-18T05:03:22;10.33;;;9.53;;
944;SDS011;459;48.676;9.034;2022-08-18T05:05:51;10.07;;;9.30;;
944;SDS011;459;48.676;9.034;2022-08-18T05:08:16;10.10;;;9.30;;
944;SDS011;459;48.676;9.034;2022-08-18T05:10:42;9.90;;;8.90;;
944;SDS011;459;48.676;9.034;2022-08-18T05:13:07;10.47;;;9.67;;
944;SDS011;459;48.676;9.034;2022-08-18T05:15:33;9.60;;;8.80;;
944;SDS011;459;48.676;9.034;2022-08-18T05:17:58;10.97;;;9.97;;
944;SDS011;459;48.676;9.034;2022-08-18T05:20:23;8.90;;;8.10;;
944;SDS011;459;48.676;9.034;2022-08-18T05:22:49;9.40;;;8.60;;
944;SDS011;459;48.676;9.034;2022-08-18T05:25:14;10.20;;;9.30;;
944;SDS011;459;48.676;9.034;2022-08-18T05:27:40;9.77;;;8.97;;
944;SDS011;459;48.676;9.034;2022-08-18T05:30:07;9.67;;;8.87;;
944;SDS011;459;48.676;9.034;2022-08-18T05:32:40;10.10;;;9.27;;
944;SDS011;459;48.676;9.034;2022-08-18T05:35:07;10.80;;;9.90;;
944;SDS011;459;48.676;9.034;2022-08-18T05:40:06;10.53;;;9.60;;
944;SDS011;459;48.676;9.034;2022-08-18T05:42:34;10.73;;;9.80;;
944;SDS011;459;48.676;9.034;2022-08-18T05:45:00;11.13;;;10.03;;
944;SDS011;459;48.676;9.034;2022-08-18T05:47:27;10.03;;;9.23;;
944;SDS011;459;48.676;9.034;2022-08-18T05:49:54;11.43;;;10.27;;
944;SDS011;459;48.676;9.034;2022-08-18T05:52:22;10.10;;;9.30;;
944;SDS011;459;48.676;9.034;2022-08-18T05:54:54;10.40;;;9.50;;
944;SDS011;459;48.676;9.034;2022-08-18T05:57:41;11.13;;;10.07;;
944;SDS011;459;48.676;9.034;2022-08-18T06:00:07;11.80;;;10.80;;
944;SDS011;459;48.676;9.034;2022-08-18T06:02:41;12.10;;;11.07;;
944;SDS011;459;48.676;9.034;2022-08-18T06:05:11;12.20;;;11.20;;
944;SDS011;459;48.676;9.034;2022-08-18T06:07:41;11.13;;;10.13;;
944;SDS011;459;48.676;9.034;2022-08-18T06:10:07;12.20;;;11.10;;
944;SDS011;459;48.676;9.034;2022-08-18T06:12:40;11.63;;;10.70;;
944;SDS011;459;48.676;9.034;2022-08-18T06:15:13;12.20;;;10.73;;
944;SDS011;459;48.676;9.034;2022-08-18T06:17:43;12.40;;;11.13;;
944;SDS011;459;48.676;9.034;2022-08-18T06:21:15;12.47;;;11.37;;
944;SDS011;459;48.676;9.034;2022-08-18T06:23:21;10.83;;;9.73;;
944;SDS011;459;48.676;9.034;2022-08-18T06:25:56;12.93;;;10.80;;
944;SDS011;459;48.676;9.034;2022-08-18T06:28:25;12.97;;;11.30;;
944;SDS011;459;48.676;9.034;2022-08-18T06:31:01;11.93;;;10.90;;
944;SDS011;459;48.676;9.034;2022-08-18T06:46:18;11.60;;;10.37;;
944;SDS011;459;48.676;9.034;2022-08-18T06:48:50;11.90;;;10.80;;
944;SDS011;459;48.676;9.034;2022-08-18T06:51:17;11.23;;;10.13;;
944;SDS011;459;48.676;9.034;2022-08-18T06:58:46;10.40;;;9.50;;
944;SDS011;459;48.676;9.034;2022-08-18T07:01:11;9.20;;;8.40;;
944;SDS011;459;48.676;9.034;2022-08-18T07:04:12;10.97;;;10.07;;
944;SDS011;459;48.676;9.034;2022-08-18T07:06:29;9.60;;;8.80;;
944;SDS011;459;48.676;9.034;2022-08-18T07:08:56;8.60;;;8.00;;
944;SDS011;459;48.676;9.034;2022-08-18T07:11:40;9.90;;;8.80;;
944;SDS011;459;48.676;9.034;2022-08-18T07:14:19;8.57;;;7.87;;
944;SDS011;459;48.676;9.034;2022-08-18T07:16:45;9.43;;;8.57;;
944;SDS011;459;48.676;9.034;2022-08-18T07:19:11;9.57;;;8.87;;
944;SDS011;459;48.676;9.034;2022-08-18T07:21:40;8.43;;;7.83;;
944;SDS011;459;48.676;9.034;2022-08-18T07:26:30;11.05;;;10.15;;
944;SDS011;459;48.676;9.034;2022-08-18T07:29:15;9.93;;;9.17;;
944;SDS011;459;48.676;9.034;2022-08-18T07:31:41;9.63;;;8.63;;
944;SDS011;459;48.676;9.034;2022-08-18T07:34:09;10.40;;;9.50;;
944;SDS011;459;48.676;9.034;2022-08-18T07:36:38;10.37;;;9.57;;
944;SDS011;459;48.676;9.034;2022-08-18T07:39:22;10.53;;;9.73;;
944;SDS011;459;48.676;9.034;2022-08-18T07:42:01;10.07;;;9.27;;
944;SDS011;459;48.676;9.034;2022-08-18T07:44:37;9.73;;;8.93;;
944;SDS011;459;48.676;9.034;2022-08-18T07:47:24;9.80;;;9.00;;
944;SDS011;459;48.676;9.034;2022-08-18T07:49:51;9.20;;;8.40;;
944;SDS011;459;48.676;9.034;2022-08-18T07:52:28;9.97;;;9.13;;
944;SDS011;459;48.676;9.034;2022-08-18T07:55:16;9.40;;;8.60;;
944;SDS011;459;48.676;9.034;2022-08-18T07:57:55;10.53;;;9.73;;
944;SDS011;459;48.676;9.034;2022-08-18T08:00:45;10.20;;;9.30;;
944;SDS011;459;48.676;9.034;2022-08-18T08:08:29;9.87;;;9.07;;
944;SDS011;459;48.676;9.034;2022-08-18T08:20:52;10.07;;;9.18;;
944;SDS011;459;48.676;9.034;2022-08-18T08:23:21;10.70;;;9.67;;
944;SDS011;459;48.676;9.034;2022-08-18T08:31:05;9.90;;;9.10;;
944;SDS011;459;48.676;9.034;2022-08-18T08:36:30;10.20;;;9.50;;
944;SDS011;459;48.676;9.034;2022-08-18T08:39:01;10.90;;;9.80;;
944;SDS011;459;48.676;9.034;2022-08-18T08:41:33;10.00;;;9.30;;
944;SDS011;459;48.676;9.034;2022-08-18T08:44:07;11.63;;;10.70;;
944;SDS011;459;48.676;9.034;2022-08-18T08:46:51;9.43;;;8.57;;
944;SDS011;459;48.676;9.034;2022-08-18T08:49:34;9.80;;;8.90;;
944;SDS011;459;48.676;9.034;2022-08-18T08:52:02;9.83;;;9.13;;
944;SDS011;459;48.676;9.034;2022-08-18T08:54:43;10.70;;;9.87;;
944;SDS011;459;48.676;9.034;2022-08-18T08:57:10;14.00;;;12.90;;
944;SDS011;459;48.676;9.034;2022-08-18T08:59:37;10.30;;;9.60;;
944;SDS011;459;48.676;9.034;2022-08-18T09:23:18;10.27;;;9.47;;
944;SDS011;459;48.676;9.034;2022-08-18T09:25:46;10.40;;;9.60;;
944;SDS011;459;48.676;9.034;2022-08-18T09:33:20;9.80;;;9.00;;
944;SDS011;459;48.676;9.034;2022-08-18T09:35:52;10.40;;;9.50;;
944;SDS011;459;48.676;9.034;2022-08-18T09:38:22;10.17;;;9.47;;
944;SDS011;459;48.676;9.034;2022-08-18T09:41:11;11.57;;;10.57;;
944;SDS011;459;48.676;9.034;2022-08-18T09:44:06;10.97;;;10.07;;
944;SDS011;459;48.676;9.034;2022-08-18T09:51:53;10.70;;;9.93;;
944;SDS011;459;48.676;9.034;2022-08-18T09:54:20;9.93;;;9.10;;
944;SDS011;459;48.676;9.034;2022-08-18T10:01:57;11.87;;;10.97;;
944;SDS011;459;48.676;9.034;2022-08-18T10:04:33;10.90;;;10.10;;
944;SDS011;459;48.676;9.034;2022-08-18T10:07:15;13.10;;;12.10;;
944;SDS011;459;48.676;9.034;2022-08-18T10:12:28;11.43;;;10.43;;
944;SDS011;459;48.676;9.034;2022-08-18T10:22:43;10.20;;;9.30;;
944;SDS011;459;48.676;9.034;2022-08-18T10:25:10;11.00;;;10.23;;
944;SDS011;459;48.676;9.034;2022-08-18T10:30:42;11.47;;;10.43;;
944;SDS011;459;48.676;9.034;2022-08-18T10:32:54;11.13;;;10.30;;
944;SDS011;459;48.676;9.034;2022-08-18T10:40:51;11.20;;;10.30;;
944;SDS011;459;48.676;9.034;2022-08-18T10:44:00;11.07;;;10.27;;
944;SDS011;459;48.676;9.034;2022-08-18T10:46:13;11.70;;;10.80;;
944;SDS011;459;48.676;9.034;2022-08-18T10:48:39;10.37;;;9.57;;
944;SDS011;459;48.676;9.034;2022-08-18T10:56:03;9.50;;;8.90;;
944;SDS011;459;48.676;9.034;2022-08-18T10:58:47;10.77;;;9.97;;
944;SDS011;459;48.676;9.034;2022-08-18T11:06:15;10.50;;;9.80;;
944;SDS011;459;48.676;9.034;2022-08-18T11:08:42;10.00;;;9.33;;
944;SDS011;459;48.676;9.034;2022-08-18T11:11:09;11.60;;;10.80;;
944;SDS011;459;48.676;9.034;2022-08-18T11:18:41;9.60;;;8.90;;
944;SDS011;459;48.676;9.034;2022-08-18T11:26:29;10.80;;;10.00;;
944;SDS011;459;48.676;9.034;2022-08-18T11:28:55;12.83;;;11.67;;
944;SDS011;459;48.676;9.034;2022-08-18T11:31:20;12.00;;;11.00;;
944;SDS011;459;48.676;9.034;2022-08-18T11:33:45;10.43;;;9.73;;
944;SDS011;459;48.676;9.034;2022-08-18T11:36:12;10.30;;;9.60;;
944;SDS011;459;48.676;9.034;2022-08-18T11:38:39;11.60;;;10.73;;
944;SDS011;459;48.676;9.034;2022-08-18T11:41:13;11.63;;;10.70;;
944;SDS011;459;48.676;9.034;2022-08-18T11:43:40;10.97;;;10.17;;
944;SDS011;459;48.676;9.034;2022-08-18T11:46:11;11.03;;;10.13;;
944;SDS011;459;48.676;9.034;2022-08-18T11:48:39;11.40;;;10.40;;
944;SDS011;459;48.676;9.034;2022-08-18T11:51:16;11.90;;;10.80;;
944;SDS011;459;48.676;9.034;2022-08-18T12:01:03;11.20;;;10.40;;
944;SDS011;459;48.676;9.034;2022-08-18T12:03:29;11.33;;;10.30;;
944;SDS011;459;48.676;9.034;2022-08-18T12:05:58;10.87;;;9.97;;
944;SDS011;459;48.676;9.034;2022-08-18T12:08:35;11.30;;;10.40;;
944;SDS011;459;48.676;9.034;2022-08-18T12:11:17;11.80;;;10.80;;
944;SDS011;459;48.676;9.034;2022-08-18T12:13:44;11.83;;;10.90;;
944;SDS011;459;48.676;9.034;2022-08-18T12:16:11;11.47;;;10.67;;
944;SDS011;459;48.676;9.034;2022-08-18T12:18:37;11.77;;;10.83;;
944;SDS011;459;48.676;9.034;2022-08-18T12:21:02;12.87;;;11.97;;
944;SDS011;459;48.676;9.034;2022-08-18T12:23:27;11.13;;;10.13;;
944;SDS011;459;48.676;9.034;2022-08-18T12:25:52;11.87;;;10.87;;
944;SDS011;459;48.676;9.034;2022-08-18T12:28:21;12.10;;;11.20;;
944;SDS011;459;48.676;9.034;2022-08-18T12:30:46;11.30;;;10.50;;
944;SDS011;459;48.676;9.034;2022-08-18T12:33:11;12.57;;;11.47;;
944;SDS011;459;48.676;9.034;2022-08-18T12:35:36;11.40;;;10.60;;
944;SDS011;459;48.676;9.034;2022-08-18T12:38:01;11.40;;;10.60;;
944;SDS011;459;48.676;9.034;2022-08-18T12:40:27;11.87;;;10.83;;
944;SDS011;459;48.676;9.034;2022-08-18T12:42:53;11.53;;;10.73;;
944;SDS011;459;48.676;9.034;2022-08-18T12:45:18;11.53;;;10.63;;
944;SDS011;459;48.676;9.034;2022-08-18T12:47:43;11.53;;;10.73;;
944;SDS011;459;48.676;9.034;2022-08-18T12:50:08;11.77;;;10.87;;
944;SDS011;459;48.676;9.034;2022-08-18T12:52:34;12.80;;;11.83;;
944;SDS011;459;48.676;9.034;2022-08-18T12:54:59;11.57;;;10.57;;
944;SDS011;459;48.676;9.034;2022-08-18T12:57:25;12.60;;;11.60;;
944;SDS011;459;48.676;9.034;2022-08-18T12:59:51;10.67;;;9.77;;
944;SDS011;459;48.676;9.034;2022-08-18T13:02:16;10.57;;;9.67;;
944;SDS011;459;48.676;9.034;2022-08-18T13:04:42;9.93;;;9.03;;
944;SDS011;459;48.676;9.034;2022-08-18T13:07:07;9.60;;;8.90;;
944;SDS011;459;48.676;9.034;2022-08-18T13:09:35;10.07;;;9.37;;
944;SDS011;459;48.676;9.034;2022-08-18T13:12:00;9.37;;;8.67;;
944;SDS011;459;48.676;9.034;2022-08-18T13:14:26;10.57;;;9.77;;
944;SDS011;459;48.676;9.034;2022-08-18T13:16:51;9.20;;;8.50;;
944;SDS011;459;48.676;9.034;2022-08-18T13:19:17;8.50;;;7.90;;
944;SDS011;459;48.676;9.034;2022-08-18T13:21:42;9.00;;;8.40;;
944;SDS011;459;48.676;9.034;2022-08-18T13:24:08;9.87;;;9.07;;
944;SDS011;459;48.676;9.034;2022-08-18T13:26:38;9.90;;;9.27;;
944;SDS011;459;48.676;9.034;2022-08-18T13:29:04;9.07;;;8.37;;
944;SDS011;459;48.676;9.034;2022-08-18T13:31:29;9.27;;;8.60;;
944;SDS011;459;48.676;9.034;2022-08-18T13:33:55;9.27;;;8.67;;
944;SDS011;459;48.676;9.034;2022-08-18T13:36:21;9.40;;;8.73;;
944;SDS011;459;48.676;9.034;2022-08-18T13:38:47;10.90;;;10.00;;
944;SDS011;459;48.676;9.034;2022-08-18T13:41:12;9.83;;;9.13;;
944;SDS011;459;48.676;9.034;2022-08-18T13:43:38;10.43;;;9.63;;
944;SDS011;459;48.676;9.034;2022-08-18T13:46:06;10.87;;;10.07;;
944;SDS011;459;48.676;9.034;2022-08-18T13:48:32;10.23;;;9.43;;
944;SDS011;459;48.676;9.034;2022-08-18T13:50:58;10.73;;;9.83;;
944;SDS011;459;48.676;9.034;2022-08-18T13:53:23;10.90;;;10.07;;
944;SDS011;459;48.676;9.034;2022-08-18T13:55:49;10.80;;;9.87;;
944;SDS011;459;48.676;9.034;2022-08-18T13:58:14;10.33;;;9.53;;
944;SDS011;459;48.676;9.034;2022-08-18T14:00:40;10.63;;;9.63;;
944;SDS011;459;48.676;9.034;2022-08-18T14:03:05;11.37;;;10.37;;
944;SDS011;459;48.676;9.034;2022-08-18T14:05:31;10.63;;;9.70;;
944;SDS011;459;48.676;9.034;2022-08-18T14:07:57;10.13;;;9.33;;
944;SDS011;459;48.676;9.034;2022-08-18T14:10:23;10.60;;;9.80;;
944;SDS011;459;48.676;9.034;2022-08-18T14:12:50;9.53;;;8.70;;
944;SDS011;459;48.676;9.034;2022-08-18T14:15:16;10.57;;;9.87;;
944;SDS011;459;48.676;9.034;2022-08-18T14:17:41;11.00;;;9.90;;
944;SDS011;459;48.676;9.034;2022-08-18T14:20:07;10.10;;;9.40;;
944;SDS011;459;48.676;9.034;2022-08-18T14:22:52;10.33;;;9.43;;
944;SDS011;459;48.676;9.034;2022-08-18T14:25:36;10.70;;;9.77;;
944;SDS011;459;48.676;9.034;2022-08-18T14:28:20;11.30;;;10.40;;
944;SDS011;459;48.676;9.034;2022-08-18T14:30:45;10.27;;;9.57;;
944;SDS011;459;48.676;9.034;2022-08-18T14:33:11;10.17;;;9.47;;
944;SDS011;459;48.676;9.034;2022-08-18T14:35:39;10.50;;;9.57;;
944;SDS011;459;48.676;9.034;2022-08-18T14:38:04;11.47;;;10.40;;
944;SDS011;459;48.676;9.034;2022-08-18T14:40:32;11.83;;;10.77;;
944;SDS011;459;48.676;9.034;2022-08-18T14:42:58;10.80;;;10.00;;
944;SDS011;459;48.676;9.034;2022-08-18T14:45:23;10.03;;;9.23;;
944;SDS011;459;48.676;9.034;2022-08-18T14:47:49;11.33;;;10.53;;
944;SDS011;459;48.676;9.034;2022-08-18T14:50:19;10.47;;;9.60;;
944;SDS011;459;48.676;9.034;2022-08-18T14:52:44;10.80;;;9.83;;
944;SDS011;459;48.676;9.034;2022-08-18T14:55:09;10.70;;;9.90;;
944;SDS011;459;48.676;9.034;2022-08-18T14:57:36;11.47;;;10.60;;
944;SDS011;459;48.676;9.034;2022-08-18T15:00:01;10.97;;;10.07;;
944;SDS011;459;48.676;9.034;2022-08-18T15:02:26;11.37;;;10.43;;
944;SDS011;459;48.676;9.034;2022-08-18T15:04:52;11.60;;;10.70;;
944;SDS011;459;48.676;9.034;2022-08-18T15:07:17;10.60;;;9.77;;
944;SDS011;459;48.676;9.034;2022-08-18T15:09:43;11.60;;;10.70;;
944;SDS011;459;48.676;9.034;2022-08-18T15:12:08;10.30;;;9.53;;
944;SDS011;459;48.676;9.034;2022-08-18T15:14:33;10.67;;;9.90;;
944;SDS011;459;48.676;9.034;2022-08-18T15:17:00;10.93;;;10.13;;
944;SDS011;459;48.676;9.034;2022-08-18T15:19:26;11.00;;;10.10;;
944;SDS011;459;48.676;9.034;2022-08-18T15:21:51;9.87;;;9.17;;
944;SDS011;459;48.676;9.034;2022-08-18T15:24:39;10.10;;;9.10;;
944;SDS011;459;48.676;9.034;2022-08-18T15:27:28;11.30;;;10.33;;
944;SDS011;459;48.676;9.034;2022-08-18T15:29:54;10.57;;;9.80;;
944;SDS011;459;48.676;9.034;2022-08-18T15:32:19;10.90;;;10.00;;
944;SDS011;459;48.676;9.034;2022-08-18T15:34:44;11.30;;;10.40;;
944;SDS011;459;48.676;9.034;2022-08-18T15:37:09;10.97;;;10.07;;
944;SDS011;459;48.676;9.034;2022-08-18T15:39:35;11.27;;;10.33;;
944;SDS011;459;48.676;9.034;2022-08-18T15:42:00;11.30;;;10.40;;
944;SDS011;459;48.676;9.034;2022-08-18T15:44:32;9.93;;;9.23;;
944;SDS011;459;48.676;9.034;2022-08-18T15:46:57;11.30;;;10.40;;
944;SDS011;459;48.676;9.034;2022-08-18T15:49:23;9.83;;;8.93;;
944;SDS011;459;48.676;9.034;2022-08-18T15:51:49;10.90;;;9.90;;
944;SDS011;459;48.676;9.034;2022-08-18T15:54:14;10.97;;;9.97;;
944;SDS011;459;48.676;9.034;2022-08-18T15:56:39;10.43;;;9.63;;
944;SDS011;459;48.676;9.034;2022-08-18T15:59:05;10.80;;;9.90;;
944;SDS011;459;48.676;9.034;2022-08-18T16:01:32;9.73;;;8.97;;
944;SDS011;459;48.676;9.034;2022-08-18T16:04:00;10.03;;;9.33;;
944;SDS011;459;48.676;9.034;2022-08-18T16:06:27;10.23;;;9.33;;
944;SDS011;459;48.676;9.034;2022-08-18T16:08:52;11.13;;;10.07;;
944;SDS011;459;48.676;9.034;2022-08-18T16:11:18;10.43;;;9.63;;
944;SDS011;459;48.676;9.034;2022-08-18T16:13:44;10.67;;;9.90;;
944;SDS011;459;48.676;9.034;2022-08-18T16:16:12;11.70;;;10.90;;
944;SDS011;459;48.676;9.034;2022-08-18T16:18:38;10.47;;;9.67;;
944;SDS011;459;48.676;9.034;2022-08-18T16:21:07;11.30;;;10.40;;
944;SDS011;459;48.676;9.034;2022-08-18T16:23:35;10.43;;;9.60;;
944;SDS011;459;48.676;9.034;2022-08-18T16:26:01;11.40;;;10.50;;
944;SDS011;459;48.676;9.034;2022-08-18T16:28:27;10.00;;;9.30;;
944;SDS011;459;48.676;9.034;2022-08-18T16:30:52;11.17;;;10.30;;
944;SDS011;459;48.676;9.034;2022-08-18T16:33:18;9.93;;;9.23;;
944;SDS011;459;48.676;9.034;2022-08-18T16:35:44;10.63;;;9.83;;
944;SDS011;459;48.676;9.034;2022-08-18T16:38:11;9.80;;;8.90;;
944;SDS011;459;48.676;9.034;2022-08-18T16:40:36;10.03;;;9.23;;
944;SDS011;459;48.676;9.034;2022-08-18T16:43:01;11.67;;;10.87;;
944;SDS011;459;48.676;9.034;2022-08-18T16:45:27;10.10;;;9.40;;
944;SDS011;459;48.676;9.034;2022-08-18T16:47:53;10.40;;;9.70;;
944;SDS011;459;48.676;9.034;2022-08-18T16:50:18;10.53;;;9.63;;
944;SDS011;459;48.676;9.034;2022-08-18T16:52:44;10.33;;;9.43;;
944;SDS011;459;48.676;9.034;2022-08-18T16:55:10;10.17;;;9.47;;
944;SDS011;459;48.676;9.034;2022-08-18T16:57:39;11.17;;;10.03;;
944;SDS011;459;48.676;9.034;2022-08-18T17:00:23;9.53;;;8.70;;
944;SDS011;459;48.676;9.034;2022-08-18T17:03:08;10.23;;;9.43;;
944;SDS011;459;48.676;9.034;2022-08-18T17:06:05;9.63;;;8.83;;
944;SDS011;459;48.676;9.034;2022-08-18T17:08:31;9.43;;;8.63;;
944;SDS011;459;48.676;9.034;2022-08-18T17:11:00;9.10;;;8.50;;
944;SDS011;459;48.676;9.034;2022-08-18T17:13:25;9.70;;;9.00;;
944;SDS011;459;48.676;9.034;2022-08-18T17:15:50;10.67;;;9.87;;
944;SDS011;459;48.676;9.034;2022-08-18T17:18:16;11.27;;;10.37;;
944;SDS011;459;48.676;9.034;2022-08-18T17:20:41;11.83;;;10.73;;
944;SDS011;459;48.676;9.034;2022-08-18T17:23:06;11.90;;;10.90;;
944;SDS011;459;48.676;9.034;2022-08-18T17:25:31;10.80;;;10.10;;
944;SDS011;459;48.676;9.034;2022-08-18T17:27:58;11.77;;;10.83;;
944;SDS011;459;48.676;9.034;2022-08-18T17:30:26;11.73;;;10.73;;
944;SDS011;459;48.676;9.034;2022-08-18T17:32:54;12.93;;;11.70;;
944;SDS011;459;48.676;9.034;2022-08-18T17:35:22;11.90;;;10.87;;
944;SDS011;459;48.676;9.034;2022-08-18T17:37:52;12.67;;;11.77;;
944;SDS011;459;48.676;9.034;2022-08-18T17:40:24;13.50;;;12.50;;
944;SDS011;459;48.676;9.034;2022-08-18T17:42:50;13.73;;;12.63;;
944;SDS011;459;48.676;9.034;2022-08-18T17:45:17;15.13;;;13.83;;
944;SDS011;459;48.676;9.034;2022-08-18T17:47:59;15.40;;;14.20;;
944;SDS011;459;48.676;9.034;2022-08-18T17:50:34;16.20;;;14.97;;
944;SDS011;459;48.676;9.034;2022-08-18T17:53:19;17.43;;;16.13;;
944;SDS011;459;48.676;9.034;2022-08-18T17:55:59;16.30;;;15.00;;